Thompson Airport
CYTH : rendu visible

Aérodrome :











RETROUVEZ-NOUS SUR...

 
LOGIN :

S'inscrire | Disclaimer

   EN    FR    IT 

 









Légende :    VFR   VFR Marginal   IFR   IFR Intensif   IFR Très Intensif
Visi : 
Plafond : 
>= 8 km
>= 3000ft
5 à 8 km
1000 à 3000 ft
1500m à 5 km
500 à 1000 ft
800 à 1500m
200 à 500 ft
< 800m
< 200 ft
Symboles :   Orages  Brouillard  Fortes neiges  Fortes précipitations  Vent > 20 kt






- Altitude de l'aérodrome : 729 ft
- Code IATA : YTH


CYTH - Thompson

DERNIER METAR :
  • 190800Z 28004KT 15SM SKC M28/M31 A3053 RMK SLP375

METARs EXPIRÉS :
  • 190700Z 31004KT 15SM SKC M27/M30 A3053 RMK SLP373
  • 190600Z 30003KT 15SM SKC M28/M30 A3053 RMK SLP375

TAF TAF CYTH
Valide du 19 à 07h jusqu'au 19 à 19h UTC


190638Z 1907/1919 VRB03KT P6SM SKC
FM191100 28008KT P6SM FEW008
PROB30 1911/1919 4SM IC BKN008 RMK NXT FCST BY 191300Z



MET'MAP, la Météo Aéronautique d'un coup d'oeil ! - Copyright ORBIFLY Décembre 2007 - Disclaimer

ORBIFLY MET'MAP TEAM :

Programmation & Développement : Alexandra Zaïnal
Sur une idée originale de : Baudouin d'Aumeries
Assistance à la programmation : Marc-Olivier Méhu
Soutien technique & logistique : Manuel Goepfert

Contact : metmap@orbifly.com




SOURCES & CREDITS :

   NOAA       Earth
Advisory